sensor_id;sensor_type;location;lat;lon;timestamp;temperature;humidity
66312;HTU21D;53114;51.138;6.008;2024-01-30T00:02:24;5.91;118.58
66312;HTU21D;53114;51.138;6.008;2024-01-30T00:04:51;5.87;118.99
66312;HTU21D;53114;51.138;6.008;2024-01-30T00:07:17;5.91;118.99
66312;HTU21D;53114;51.138;6.008;2024-01-30T00:09:43;5.89;118.99
66312;HTU21D;53114;51.138;6.008;2024-01-30T00:12:09;5.86;118.99
66312;HTU21D;53114;51.138;6.008;2024-01-30T00:14:35;5.85;118.99
66312;HTU21D;53114;51.138;6.008;2024-01-30T00:17:01;5.85;118.99
66312;HTU21D;53114;51.138;6.008;2024-01-30T00:19:27;5.83;118.99
66312;HTU21D;53114;51.138;6.008;2024-01-30T00:21:53;5.80;118.99
66312;HTU21D;53114;51.138;6.008;2024-01-30T00:24:18;5.82;118.99
66312;HTU21D;53114;51.138;6.008;2024-01-30T00:26:45;5.89;118.99
66312;HTU21D;53114;51.138;6.008;2024-01-30T00:29:10;5.87;117.99
66312;HTU21D;53114;51.138;6.008;2024-01-30T00:31:37;5.81;117.76
66312;HTU21D;53114;51.138;6.008;2024-01-30T00:34:03;5.77;118.27
66312;HTU21D;53114;51.138;6.008;2024-01-30T00:36:28;5.78;118.78
66312;HTU21D;53114;51.138;6.008;2024-01-30T00:38:55;5.80;118.72
66312;HTU21D;53114;51.138;6.008;2024-01-30T00:41:21;5.81;117.92
66312;HTU21D;53114;51.138;6.008;2024-01-30T00:43:47;5.83;117.53
66312;HTU21D;53114;51.138;6.008;2024-01-30T00:46:13;5.82;116.55
66312;HTU21D;53114;51.138;6.008;2024-01-30T00:48:39;5.78;116.28
66312;HTU21D;53114;51.138;6.008;2024-01-30T00:51:05;5.71;116.41
66312;HTU21D;53114;51.138;6.008;2024-01-30T00:53:32;5.65;118.90
66312;HTU21D;53114;51.138;6.008;2024-01-30T00:55:58;5.66;118.99
66312;HTU21D;53114;51.138;6.008;2024-01-30T00:58:24;5.69;118.99
66312;HTU21D;53114;51.138;6.008;2024-01-30T01:00:50;5.68;118.99
66312;HTU21D;53114;51.138;6.008;2024-01-30T01:03:16;5.65;118.99
66312;HTU21D;53114;51.138;6.008;2024-01-30T01:05:42;5.60;118.99
66312;HTU21D;53114;51.138;6.008;2024-01-30T01:08:08;5.56;118.99
66312;HTU21D;53114;51.138;6.008;2024-01-30T01:10:34;5.55;118.99
66312;HTU21D;53114;51.138;6.008;2024-01-30T01:13:00;5.56;118.99
66312;HTU21D;53114;51.138;6.008;2024-01-30T01:15:26;5.56;118.99
66312;HTU21D;53114;51.138;6.008;2024-01-30T01:17:52;5.56;118.99
66312;HTU21D;53114;51.138;6.008;2024-01-30T01:20:18;5.53;118.99
66312;HTU21D;53114;51.138;6.008;2024-01-30T01:22:44;5.51;118.99
66312;HTU21D;53114;51.138;6.008;2024-01-30T01:25:10;5.51;118.99
66312;HTU21D;53114;51.138;6.008;2024-01-30T01:27:36;5.46;118.99
66312;HTU21D;53114;51.138;6.008;2024-01-30T01:30:08;5.46;118.99
66312;HTU21D;53114;51.138;6.008;2024-01-30T01:32:36;5.42;118.99
66312;HTU21D;53114;51.138;6.008;2024-01-30T01:35:02;5.42;118.99
66312;HTU21D;53114;51.138;6.008;2024-01-30T01:37:29;5.40;118.99
66312;HTU21D;53114;51.138;6.008;2024-01-30T01:39:55;5.43;118.99
66312;HTU21D;53114;51.138;6.008;2024-01-30T01:42:21;5.48;118.99
66312;HTU21D;53114;51.138;6.008;2024-01-30T01:44:48;5.50;118.99
66312;HTU21D;53114;51.138;6.008;2024-01-30T01:47:15;5.54;118.99
66312;HTU21D;53114;51.138;6.008;2024-01-30T01:49:41;5.54;118.99
66312;HTU21D;53114;51.138;6.008;2024-01-30T01:52:08;5.60;118.99
66312;HTU21D;53114;51.138;6.008;2024-01-30T01:54:34;5.64;118.99
66312;HTU21D;53114;51.138;6.008;2024-01-30T01:57:00;5.64;118.99
66312;HTU21D;53114;51.138;6.008;2024-01-30T01:59:26;5.59;118.99
66312;HTU21D;53114;51.138;6.008;2024-01-30T02:01:54;5.50;118.99
66312;HTU21D;53114;51.138;6.008;2024-01-30T02:04:21;5.42;118.99
66312;HTU21D;53114;51.138;6.008;2024-01-30T02:06:47;5.47;118.99
66312;HTU21D;53114;51.138;6.008;2024-01-30T02:09:13;5.51;118.99
66312;HTU21D;53114;51.138;6.008;2024-01-30T02:11:39;5.52;118.99
66312;HTU21D;53114;51.138;6.008;2024-01-30T02:14:06;5.56;118.99
66312;HTU21D;53114;51.138;6.008;2024-01-30T02:16:32;5.57;118.99
66312;HTU21D;53114;51.138;6.008;2024-01-30T02:18:58;5.57;118.99
66312;HTU21D;53114;51.138;6.008;2024-01-30T02:21:29;5.60;118.99
66312;HTU21D;53114;51.138;6.008;2024-01-30T02:23:58;5.60;118.99
66312;HTU21D;53114;51.138;6.008;2024-01-30T02:26:25;5.59;118.99
66312;HTU21D;53114;51.138;6.008;2024-01-30T02:28:51;5.57;118.99
66312;HTU21D;53114;51.138;6.008;2024-01-30T02:31:17;5.52;118.99
66312;HTU21D;53114;51.138;6.008;2024-01-30T02:33:43;5.39;118.99
66312;HTU21D;53114;51.138;6.008;2024-01-30T02:36:09;5.28;118.99
66312;HTU21D;53114;51.138;6.008;2024-01-30T02:38:35;5.27;118.99
66312;HTU21D;53114;51.138;6.008;2024-01-30T02:41:01;5.31;118.99
66312;HTU21D;53114;51.138;6.008;2024-01-30T02:43:27;5.36;118.99
66312;HTU21D;53114;51.138;6.008;2024-01-30T02:45:53;5.37;118.99
66312;HTU21D;53114;51.138;6.008;2024-01-30T02:48:19;5.43;118.99
66312;HTU21D;53114;51.138;6.008;2024-01-30T02:50:45;5.47;118.99
66312;HTU21D;53114;51.138;6.008;2024-01-30T02:53:12;5.42;118.99
66312;HTU21D;53114;51.138;6.008;2024-01-30T02:55:38;5.39;118.99
66312;HTU21D;53114;51.138;6.008;2024-01-30T02:58:04;5.42;118.99
66312;HTU21D;53114;51.138;6.008;2024-01-30T03:00:30;5.40;118.99
66312;HTU21D;53114;51.138;6.008;2024-01-30T03:02:56;5.34;118.99
66312;HTU21D;53114;51.138;6.008;2024-01-30T03:05:22;5.33;118.99
66312;HTU21D;53114;51.138;6.008;2024-01-30T03:07:48;5.27;118.99
66312;HTU21D;53114;51.138;6.008;2024-01-30T03:10:14;5.27;118.99
66312;HTU21D;53114;51.138;6.008;2024-01-30T03:12:40;5.27;118.99
66312;HTU21D;53114;51.138;6.008;2024-01-30T03:15:06;5.31;118.99
66312;HTU21D;53114;51.138;6.008;2024-01-30T03:17:32;5.32;118.99
66312;HTU21D;53114;51.138;6.008;2024-01-30T03:19:58;5.27;118.99
66312;HTU21D;53114;51.138;6.008;2024-01-30T03:22:24;5.30;118.99
66312;HTU21D;53114;51.138;6.008;2024-01-30T03:24:50;5.28;118.99
66312;HTU21D;53114;51.138;6.008;2024-01-30T03:27:16;5.28;118.99
66312;HTU21D;53114;51.138;6.008;2024-01-30T03:29:42;5.30;118.99
66312;HTU21D;53114;51.138;6.008;2024-01-30T03:32:08;5.34;118.99
66312;HTU21D;53114;51.138;6.008;2024-01-30T03:34:34;5.36;118.99
66312;HTU21D;53114;51.138;6.008;2024-01-30T03:37:00;5.36;118.99
66312;HTU21D;53114;51.138;6.008;2024-01-30T03:39:26;5.39;118.99
66312;HTU21D;53114;51.138;6.008;2024-01-30T03:41:52;5.31;118.99
66312;HTU21D;53114;51.138;6.008;2024-01-30T03:44:18;5.21;118.99
66312;HTU21D;53114;51.138;6.008;2024-01-30T03:46:44;5.16;118.99
66312;HTU21D;53114;51.138;6.008;2024-01-30T03:49:11;5.13;118.99
66312;HTU21D;53114;51.138;6.008;2024-01-30T03:51:37;5.07;118.99
66312;HTU21D;53114;51.138;6.008;2024-01-30T03:54:03;5.05;118.99
66312;HTU21D;53114;51.138;6.008;2024-01-30T03:56:29;5.03;118.99
66312;HTU21D;53114;51.138;6.008;2024-01-30T03:58:55;5.10;118.99
66312;HTU21D;53114;51.138;6.008;2024-01-30T04:01:22;5.15;118.99
66312;HTU21D;53114;51.138;6.008;2024-01-30T04:03:48;5.19;118.99
66312;HTU21D;53114;51.138;6.008;2024-01-30T04:06:14;5.23;118.99
66312;HTU21D;53114;51.138;6.008;2024-01-30T04:08:40;5.22;118.99
66312;HTU21D;53114;51.138;6.008;2024-01-30T04:11:06;5.22;118.99
66312;HTU21D;53114;51.138;6.008;2024-01-30T04:13:33;5.21;118.99
66312;HTU21D;53114;51.138;6.008;2024-01-30T04:16:00;5.16;118.99
66312;HTU21D;53114;51.138;6.008;2024-01-30T04:18:27;5.08;118.99
66312;HTU21D;53114;51.138;6.008;2024-01-30T04:20:53;5.09;118.99
66312;HTU21D;53114;51.138;6.008;2024-01-30T04:23:19;5.15;118.99
66312;HTU21D;53114;51.138;6.008;2024-01-30T04:25:45;5.18;118.99
66312;HTU21D;53114;51.138;6.008;2024-01-30T04:28:12;5.18;118.99
66312;HTU21D;53114;51.138;6.008;2024-01-30T04:30:38;5.17;118.99
66312;HTU21D;53114;51.138;6.008;2024-01-30T04:33:04;5.19;118.99
66312;HTU21D;53114;51.138;6.008;2024-01-30T04:35:30;5.16;118.99
66312;HTU21D;53114;51.138;6.008;2024-01-30T04:37:56;5.13;118.99
66312;HTU21D;53114;51.138;6.008;2024-01-30T04:40:22;5.13;118.99
66312;HTU21D;53114;51.138;6.008;2024-01-30T04:42:48;5.13;118.99
66312;HTU21D;53114;51.138;6.008;2024-01-30T04:45:15;5.18;118.99
66312;HTU21D;53114;51.138;6.008;2024-01-30T04:47:41;5.23;118.99
66312;HTU21D;53114;51.138;6.008;2024-01-30T04:50:07;5.22;118.99
66312;HTU21D;53114;51.138;6.008;2024-01-30T04:52:34;5.22;118.99
66312;HTU21D;53114;51.138;6.008;2024-01-30T04:55:01;5.21;118.99
66312;HTU21D;53114;51.138;6.008;2024-01-30T04:57:27;5.23;118.99
66312;HTU21D;53114;51.138;6.008;2024-01-30T04:59:53;5.24;118.99
66312;HTU21D;53114;51.138;6.008;2024-01-30T05:02:19;5.32;118.99
66312;HTU21D;53114;51.138;6.008;2024-01-30T05:04:45;5.40;118.99
66312;HTU21D;53114;51.138;6.008;2024-01-30T05:07:11;5.49;118.99
66312;HTU21D;53114;51.138;6.008;2024-01-30T05:09:37;5.59;118.99
66312;HTU21D;53114;51.138;6.008;2024-01-30T05:12:03;5.64;118.99
66312;HTU21D;53114;51.138;6.008;2024-01-30T05:14:29;5.74;118.99
66312;HTU21D;53114;51.138;6.008;2024-01-30T05:16:55;5.81;118.99
66312;HTU21D;53114;51.138;6.008;2024-01-30T05:19:21;5.91;118.99
66312;HTU21D;53114;51.138;6.008;2024-01-30T05:21:50;6.00;118.99
66312;HTU21D;53114;51.138;6.008;2024-01-30T05:24:16;6.00;118.99
66312;HTU21D;53114;51.138;6.008;2024-01-30T05:26:42;6.07;118.99
66312;HTU21D;53114;51.138;6.008;2024-01-30T05:29:08;6.10;118.99
66312;HTU21D;53114;51.138;6.008;2024-01-30T05:31:34;6.13;118.99
66312;HTU21D;53114;51.138;6.008;2024-01-30T05:34:00;6.22;118.99
66312;HTU21D;53114;51.138;6.008;2024-01-30T05:36:27;6.24;118.99
66312;HTU21D;53114;51.138;6.008;2024-01-30T05:38:53;6.25;118.99
66312;HTU21D;53114;51.138;6.008;2024-01-30T05:41:19;6.27;118.99
66312;HTU21D;53114;51.138;6.008;2024-01-30T05:43:47;6.37;118.99
66312;HTU21D;53114;51.138;6.008;2024-01-30T05:46:13;6.43;118.99
66312;HTU21D;53114;51.138;6.008;2024-01-30T05:48:39;6.40;118.99
66312;HTU21D;53114;51.138;6.008;2024-01-30T05:51:07;6.42;118.99
66312;HTU21D;53114;51.138;6.008;2024-01-30T05:53:34;6.48;118.99
66312;HTU21D;53114;51.138;6.008;2024-01-30T05:56:03;6.48;118.99
66312;HTU21D;53114;51.138;6.008;2024-01-30T05:58:30;6.46;118.99
66312;HTU21D;53114;51.138;6.008;2024-01-30T06:00:57;6.52;118.99
66312;HTU21D;53114;51.138;6.008;2024-01-30T06:03:23;6.52;118.99
66312;HTU21D;53114;51.138;6.008;2024-01-30T06:05:50;6.55;118.99
66312;HTU21D;53114;51.138;6.008;2024-01-30T06:08:16;6.58;118.99
66312;HTU21D;53114;51.138;6.008;2024-01-30T06:10:42;6.64;118.99
66312;HTU21D;53114;51.138;6.008;2024-01-30T06:13:08;6.66;118.99
66312;HTU21D;53114;51.138;6.008;2024-01-30T06:15:34;6.71;118.99
66312;HTU21D;53114;51.138;6.008;2024-01-30T06:18:00;6.68;118.99
66312;HTU21D;53114;51.138;6.008;2024-01-30T06:20:26;6.71;118.99
66312;HTU21D;53114;51.138;6.008;2024-01-30T06:22:52;6.70;118.99
66312;HTU21D;53114;51.138;6.008;2024-01-30T06:25:18;6.70;118.99
66312;HTU21D;53114;51.138;6.008;2024-01-30T06:27:44;6.70;118.99
66312;HTU21D;53114;51.138;6.008;2024-01-30T06:30:10;6.71;118.99
66312;HTU21D;53114;51.138;6.008;2024-01-30T06:32:36;6.76;118.99
66312;HTU21D;53114;51.138;6.008;2024-01-30T06:35:03;6.81;118.99
66312;HTU21D;53114;51.138;6.008;2024-01-30T06:37:29;6.81;118.99
66312;HTU21D;53114;51.138;6.008;2024-01-30T06:39:55;6.85;118.99
66312;HTU21D;53114;51.138;6.008;2024-01-30T06:42:21;6.85;118.99
66312;HTU21D;53114;51.138;6.008;2024-01-30T06:44:47;6.85;118.99
66312;HTU21D;53114;51.138;6.008;2024-01-30T06:47:13;6.89;118.99
66312;HTU21D;53114;51.138;6.008;2024-01-30T06:49:39;6.90;118.99
66312;HTU21D;53114;51.138;6.008;2024-01-30T06:52:08;6.93;118.99
66312;HTU21D;53114;51.138;6.008;2024-01-30T06:54:34;6.96;118.99
66312;HTU21D;53114;51.138;6.008;2024-01-30T06:57:00;7.00;118.99
66312;HTU21D;53114;51.138;6.008;2024-01-30T06:59:26;7.03;118.99
66312;HTU21D;53114;51.138;6.008;2024-01-30T07:01:52;7.07;118.99
66312;HTU21D;53114;51.138;6.008;2024-01-30T07:04:18;7.11;118.99
66312;HTU21D;53114;51.138;6.008;2024-01-30T07:06:44;7.15;118.99
66312;HTU21D;53114;51.138;6.008;2024-01-30T07:09:10;7.19;118.99
66312;HTU21D;53114;51.138;6.008;2024-01-30T07:11:36;7.30;118.99
66312;HTU21D;53114;51.138;6.008;2024-01-30T07:14:02;7.34;118.99
66312;HTU21D;53114;51.138;6.008;2024-01-30T07:16:30;7.44;118.99
66312;HTU21D;53114;51.138;6.008;2024-01-30T07:18:56;7.77;118.99
66312;HTU21D;53114;51.138;6.008;2024-01-30T07:21:22;8.33;118.99
66312;HTU21D;53114;51.138;6.008;2024-01-30T07:23:57;8.96;118.99
66312;HTU21D;53114;51.138;6.008;2024-01-30T07:26:23;9.38;118.99
66312;HTU21D;53114;51.138;6.008;2024-01-30T07:28:49;9.72;118.99
66312;HTU21D;53114;51.138;6.008;2024-01-30T07:31:15;9.90;118.99
66312;HTU21D;53114;51.138;6.008;2024-01-30T07:33:42;9.98;118.99
66312;HTU21D;53114;51.138;6.008;2024-01-30T07:36:08;10.11;118.99
66312;HTU21D;53114;51.138;6.008;2024-01-30T07:38:34;10.28;118.99
66312;HTU21D;53114;51.138;6.008;2024-01-30T07:41:00;10.37;118.29
66312;HTU21D;53114;51.138;6.008;2024-01-30T07:43:26;10.52;118.99
66312;HTU21D;53114;51.138;6.008;2024-01-30T07:45:52;10.63;117.95
66312;HTU21D;53114;51.138;6.008;2024-01-30T07:48:18;10.67;115.28
66312;HTU21D;53114;51.138;6.008;2024-01-30T07:50:44;10.80;114.28
66312;HTU21D;53114;51.138;6.008;2024-01-30T07:53:10;10.89;112.42
66312;HTU21D;53114;51.138;6.008;2024-01-30T07:55:36;10.94;110.46
66312;HTU21D;53114;51.138;6.008;2024-01-30T07:58:02;10.98;108.72
66312;HTU21D;53114;51.138;6.008;2024-01-30T08:00:30;10.97;107.27
66312;HTU21D;53114;51.138;6.008;2024-01-30T08:02:56;10.99;106.32
66312;HTU21D;53114;51.138;6.008;2024-01-30T08:05:22;10.98;105.36
66312;HTU21D;53114;51.138;6.008;2024-01-30T08:07:49;10.96;105.14
66312;HTU21D;53114;51.138;6.008;2024-01-30T08:10:18;10.99;104.68
66312;HTU21D;53114;51.138;6.008;2024-01-30T08:12:44;11.01;103.83
66312;HTU21D;53114;51.138;6.008;2024-01-30T08:15:11;11.01;103.30
66312;HTU21D;53114;51.138;6.008;2024-01-30T08:17:38;11.03;102.89
66312;HTU21D;53114;51.138;6.008;2024-01-30T08:20:05;11.03;102.54
66312;HTU21D;53114;51.138;6.008;2024-01-30T08:22:31;11.08;102.22
66312;HTU21D;53114;51.138;6.008;2024-01-30T08:24:57;11.08;101.90
66312;HTU21D;53114;51.138;6.008;2024-01-30T08:27:23;11.13;101.81
66312;HTU21D;53114;51.138;6.008;2024-01-30T08:29:49;11.17;101.26
66312;HTU21D;53114;51.138;6.008;2024-01-30T08:32:16;11.23;100.74
66312;HTU21D;53114;51.138;6.008;2024-01-30T08:34:42;11.29;99.80
66312;HTU21D;53114;51.138;6.008;2024-01-30T08:37:08;11.31;99.46
66312;HTU21D;53114;51.138;6.008;2024-01-30T08:39:34;11.29;100.19
66312;HTU21D;53114;51.138;6.008;2024-01-30T08:42:00;11.41;99.53
66312;HTU21D;53114;51.138;6.008;2024-01-30T08:44:26;11.42;99.26
66312;HTU21D;53114;51.138;6.008;2024-01-30T08:46:53;11.48;98.86
66312;HTU21D;53114;51.138;6.008;2024-01-30T08:49:20;11.55;98.11
66312;HTU21D;53114;51.138;6.008;2024-01-30T08:51:46;11.60;97.49
66312;HTU21D;53114;51.138;6.008;2024-01-30T08:54:13;11.66;96.85
66312;HTU21D;53114;51.138;6.008;2024-01-30T08:56:39;11.63;95.40
66312;HTU21D;53114;51.138;6.008;2024-01-30T08:59:04;11.77;97.03
66312;HTU21D;53114;51.138;6.008;2024-01-30T09:01:31;11.84;96.56
66312;HTU21D;53114;51.138;6.008;2024-01-30T09:03:57;11.94;96.10
66312;HTU21D;53114;51.138;6.008;2024-01-30T09:06:23;12.10;95.56
66312;HTU21D;53114;51.138;6.008;2024-01-30T09:08:50;12.20;95.28
66312;HTU21D;53114;51.138;6.008;2024-01-30T09:11:16;12.38;94.78
66312;HTU21D;53114;51.138;6.008;2024-01-30T09:13:42;12.55;93.17
66312;HTU21D;53114;51.138;6.008;2024-01-30T09:16:09;12.64;91.12
66312;HTU21D;53114;51.138;6.008;2024-01-30T09:18:35;12.75;89.89
66312;HTU21D;53114;51.138;6.008;2024-01-30T09:21:01;12.73;88.37
66312;HTU21D;53114;51.138;6.008;2024-01-30T09:23:28;12.60;87.61
66312;HTU21D;53114;51.138;6.008;2024-01-30T09:25:54;12.49;87.57
66312;HTU21D;53114;51.138;6.008;2024-01-30T09:28:20;12.36;87.99
66312;HTU21D;53114;51.138;6.008;2024-01-30T09:30:46;12.30;88.70
66312;HTU21D;53114;51.138;6.008;2024-01-30T09:33:13;12.21;89.15
66312;HTU21D;53114;51.138;6.008;2024-01-30T09:35:39;12.20;89.47
66312;HTU21D;53114;51.138;6.008;2024-01-30T09:38:05;12.14;88.00
66312;HTU21D;53114;51.138;6.008;2024-01-30T09:40:31;12.17;90.46
66312;HTU21D;53114;51.138;6.008;2024-01-30T09:42:58;12.21;89.44
66312;HTU21D;53114;51.138;6.008;2024-01-30T09:45:27;12.26;90.11
66312;HTU21D;53114;51.138;6.008;2024-01-30T09:47:53;12.30;89.90
66312;HTU21D;53114;51.138;6.008;2024-01-30T09:50:20;12.33;89.66
66312;HTU21D;53114;51.138;6.008;2024-01-30T09:52:47;12.37;87.42
66312;HTU21D;53114;51.138;6.008;2024-01-30T09:55:13;12.40;88.76
66312;HTU21D;53114;51.138;6.008;2024-01-30T09:57:41;12.42;88.34
66312;HTU21D;53114;51.138;6.008;2024-01-30T10:00:08;12.44;88.56
66312;HTU21D;53114;51.138;6.008;2024-01-30T10:02:40;12.49;88.28
66312;HTU21D;53114;51.138;6.008;2024-01-30T10:05:08;12.50;87.96
66312;HTU21D;53114;51.138;6.008;2024-01-30T10:07:34;12.46;86.84
66312;HTU21D;53114;51.138;6.008;2024-01-30T10:10:00;12.53;88.09
66312;HTU21D;53114;51.138;6.008;2024-01-30T10:12:27;12.59;87.77
66312;HTU21D;53114;51.138;6.008;2024-01-30T10:14:56;12.62;87.45
66312;HTU21D;53114;51.138;6.008;2024-01-30T10:17:25;12.65;87.20
66312;HTU21D;53114;51.138;6.008;2024-01-30T10:19:52;12.69;86.80
66312;HTU21D;53114;51.138;6.008;2024-01-30T10:22:19;12.69;87.35
66312;HTU21D;53114;51.138;6.008;2024-01-30T10:24:45;12.70;87.34
66312;HTU21D;53114;51.138;6.008;2024-01-30T10:27:11;12.73;87.17
66312;HTU21D;53114;51.138;6.008;2024-01-30T10:29:37;12.73;87.26
66312;HTU21D;53114;51.138;6.008;2024-01-30T10:32:04;12.76;87.37
66312;HTU21D;53114;51.138;6.008;2024-01-30T10:34:32;12.81;87.38
66312;HTU21D;53114;51.138;6.008;2024-01-30T10:37:09;12.86;86.95
66312;HTU21D;53114;51.138;6.008;2024-01-30T10:39:43;12.91;86.67
66312;HTU21D;53114;51.138;6.008;2024-01-30T10:42:24;12.88;86.61
66312;HTU21D;53114;51.138;6.008;2024-01-30T10:45:09;12.93;86.64
66312;HTU21D;53114;51.138;6.008;2024-01-30T10:47:40;12.96;86.31
66312;HTU21D;53114;51.138;6.008;2024-01-30T10:50:10;13.01;86.46
66312;HTU21D;53114;51.138;6.008;2024-01-30T10:52:37;13.06;86.13
66312;HTU21D;53114;51.138;6.008;2024-01-30T10:55:04;13.05;86.44
66312;HTU21D;53114;51.138;6.008;2024-01-30T10:57:34;13.11;86.33
66312;HTU21D;53114;51.138;6.008;2024-01-30T11:00:09;13.12;85.94
66312;HTU21D;53114;51.138;6.008;2024-01-30T11:02:45;13.08;86.06
66312;HTU21D;53114;51.138;6.008;2024-01-30T11:05:12;13.09;86.78
66312;HTU21D;53114;51.138;6.008;2024-01-30T11:07:39;13.09;86.54
66312;HTU21D;53114;51.138;6.008;2024-01-30T11:10:08;13.09;87.35
66312;HTU21D;53114;51.138;6.008;2024-01-30T11:12:39;13.11;87.38
66312;HTU21D;53114;51.138;6.008;2024-01-30T11:15:18;13.10;87.47
66312;HTU21D;53114;51.138;6.008;2024-01-30T11:17:51;13.09;87.59
66312;HTU21D;53114;51.138;6.008;2024-01-30T11:20:30;13.08;88.24
66312;HTU21D;53114;51.138;6.008;2024-01-30T11:22:59;13.12;87.84
66312;HTU21D;53114;51.138;6.008;2024-01-30T11:25:27;13.06;88.44
66312;HTU21D;53114;51.138;6.008;2024-01-30T11:27:55;13.11;88.28
66312;HTU21D;53114;51.138;6.008;2024-01-30T11:30:28;13.14;88.53
66312;HTU21D;53114;51.138;6.008;2024-01-30T11:33:14;13.11;88.57
66312;HTU21D;53114;51.138;6.008;2024-01-30T11:35:42;13.17;88.47
66312;HTU21D;53114;51.138;6.008;2024-01-30T11:38:11;13.22;88.69
66312;HTU21D;53114;51.138;6.008;2024-01-30T11:40:38;13.26;87.86
66312;HTU21D;53114;51.138;6.008;2024-01-30T11:43:07;13.32;87.70
66312;HTU21D;53114;51.138;6.008;2024-01-30T11:45:35;13.35;87.52
66312;HTU21D;53114;51.138;6.008;2024-01-30T11:48:01;13.36;87.30
66312;HTU21D;53114;51.138;6.008;2024-01-30T11:50:30;13.31;87.35
66312;HTU21D;53114;51.138;6.008;2024-01-30T11:52:56;13.25;88.09
66312;HTU21D;53114;51.138;6.008;2024-01-30T11:55:23;13.29;88.61
66312;HTU21D;53114;51.138;6.008;2024-01-30T11:57:50;13.30;88.38
66312;HTU21D;53114;51.138;6.008;2024-01-30T12:00:19;13.26;88.93
66312;HTU21D;53114;51.138;6.008;2024-01-30T12:02:54;13.29;89.15
66312;HTU21D;53114;51.138;6.008;2024-01-30T12:05:25;13.26;89.62
66312;HTU21D;53114;51.138;6.008;2024-01-30T12:07:51;13.32;89.21
66312;HTU21D;53114;51.138;6.008;2024-01-30T12:10:17;13.36;89.11
66312;HTU21D;53114;51.138;6.008;2024-01-30T12:12:50;13.40;89.17
66312;HTU21D;53114;51.138;6.008;2024-01-30T12:15:21;13.39;89.02
66312;HTU21D;53114;51.138;6.008;2024-01-30T12:17:48;13.43;88.83
66312;HTU21D;53114;51.138;6.008;2024-01-30T12:20:17;13.39;88.22
66312;HTU21D;53114;51.138;6.008;2024-01-30T12:22:45;13.43;88.70
66312;HTU21D;53114;51.138;6.008;2024-01-30T12:25:16;13.46;88.64
66312;HTU21D;53114;51.138;6.008;2024-01-30T12:27:46;13.46;88.59
66312;HTU21D;53114;51.138;6.008;2024-01-30T12:30:15;13.43;88.70
66312;HTU21D;53114;51.138;6.008;2024-01-30T12:32:44;13.44;88.89
66312;HTU21D;53114;51.138;6.008;2024-01-30T12:35:12;13.43;88.56
66312;HTU21D;53114;51.138;6.008;2024-01-30T12:37:39;13.40;88.75
66312;HTU21D;53114;51.138;6.008;2024-01-30T12:40:07;13.36;88.89
66312;HTU21D;53114;51.138;6.008;2024-01-30T12:42:33;13.31;89.13
66312;HTU21D;53114;51.138;6.008;2024-01-30T12:45:00;13.29;89.70
66312;HTU21D;53114;51.138;6.008;2024-01-30T12:47:26;13.22;89.83
66312;HTU21D;53114;51.138;6.008;2024-01-30T12:49:52;13.16;90.69
66312;HTU21D;53114;51.138;6.008;2024-01-30T12:52:21;13.12;91.27
66312;HTU21D;53114;51.138;6.008;2024-01-30T12:54:51;13.10;91.73
66312;HTU21D;53114;51.138;6.008;2024-01-30T12:57:18;13.09;92.14
66312;HTU21D;53114;51.138;6.008;2024-01-30T12:59:45;13.05;92.60
66312;HTU21D;53114;51.138;6.008;2024-01-30T13:02:13;13.06;92.70
66312;HTU21D;53114;51.138;6.008;2024-01-30T13:04:40;12.97;93.17
66312;HTU21D;53114;51.138;6.008;2024-01-30T13:07:06;13.10;92.57
66312;HTU21D;53114;51.138;6.008;2024-01-30T13:09:32;13.17;90.64
66312;HTU21D;53114;51.138;6.008;2024-01-30T13:11:58;13.27;90.96
66312;HTU21D;53114;51.138;6.008;2024-01-30T13:14:26;13.34;90.39
66312;HTU21D;53114;51.138;6.008;2024-01-30T13:16:52;13.44;89.63
66312;HTU21D;53114;51.138;6.008;2024-01-30T13:19:18;13.54;88.61
66312;HTU21D;53114;51.138;6.008;2024-01-30T13:21:44;13.60;87.03
66312;HTU21D;53114;51.138;6.008;2024-01-30T13:24:10;13.60;86.98
66312;HTU21D;53114;51.138;6.008;2024-01-30T13:26:37;13.54;85.77
66312;HTU21D;53114;51.138;6.008;2024-01-30T13:29:03;13.52;86.54
66312;HTU21D;53114;51.138;6.008;2024-01-30T13:31:29;13.47;86.39
66312;HTU21D;53114;51.138;6.008;2024-01-30T13:33:55;13.36;87.06
66312;HTU21D;53114;51.138;6.008;2024-01-30T13:36:22;13.33;87.13
66312;HTU21D;53114;51.138;6.008;2024-01-30T13:38:48;13.26;86.56
66312;HTU21D;53114;51.138;6.008;2024-01-30T13:41:14;13.19;81.35
66312;HTU21D;53114;51.138;6.008;2024-01-30T13:43:43;13.16;85.99
66312;HTU21D;53114;51.138;6.008;2024-01-30T13:46:10;13.14;85.64
66312;HTU21D;53114;51.138;6.008;2024-01-30T13:48:36;13.16;84.47
66312;HTU21D;53114;51.138;6.008;2024-01-30T13:51:02;13.07;84.38
66312;HTU21D;53114;51.138;6.008;2024-01-30T13:53:28;13.11;83.10
66312;HTU21D;53114;51.138;6.008;2024-01-30T13:55:54;13.15;83.07
66312;HTU21D;53114;51.138;6.008;2024-01-30T13:58:21;13.17;81.55
66312;HTU21D;53114;51.138;6.008;2024-01-30T14:00:47;13.16;81.40
66312;HTU21D;53114;51.138;6.008;2024-01-30T14:03:13;13.16;80.50
66312;HTU21D;53114;51.138;6.008;2024-01-30T14:05:39;13.17;79.47
66312;HTU21D;53114;51.138;6.008;2024-01-30T14:08:06;13.17;79.27
66312;HTU21D;53114;51.138;6.008;2024-01-30T14:10:34;13.18;79.04
66312;HTU21D;53114;51.138;6.008;2024-01-30T14:13:00;13.18;77.60
66312;HTU21D;53114;51.138;6.008;2024-01-30T14:15:26;13.18;77.53
66312;HTU21D;53114;51.138;6.008;2024-01-30T14:17:52;13.16;76.61
66312;HTU21D;53114;51.138;6.008;2024-01-30T14:20:19;13.10;74.61
66312;HTU21D;53114;51.138;6.008;2024-01-30T14:22:45;13.05;74.40
66312;HTU21D;53114;51.138;6.008;2024-01-30T14:25:11;12.96;74.40
66312;HTU21D;53114;51.138;6.008;2024-01-30T14:27:37;12.93;73.21
66312;HTU21D;53114;51.138;6.008;2024-01-30T14:30:04;12.87;73.65
66312;HTU21D;53114;51.138;6.008;2024-01-30T14:32:32;12.77;71.88
66312;HTU21D;53114;51.138;6.008;2024-01-30T14:34:58;12.71;71.84
66312;HTU21D;53114;51.138;6.008;2024-01-30T14:37:24;12.64;72.12
66312;HTU21D;53114;51.138;6.008;2024-01-30T14:39:50;12.60;71.93
66312;HTU21D;53114;51.138;6.008;2024-01-30T14:42:16;12.55;71.88
66312;HTU21D;53114;51.138;6.008;2024-01-30T14:44:43;12.51;71.84
66312;HTU21D;53114;51.138;6.008;2024-01-30T14:47:09;12.47;71.24
66312;HTU21D;53114;51.138;6.008;2024-01-30T14:49:35;12.48;70.64
66312;HTU21D;53114;51.138;6.008;2024-01-30T14:52:01;12.45;70.19
66312;HTU21D;53114;51.138;6.008;2024-01-30T14:54:30;12.46;69.94
66312;HTU21D;53114;51.138;6.008;2024-01-30T14:56:56;12.47;69.64
66312;HTU21D;53114;51.138;6.008;2024-01-30T14:59:22;12.49;69.29
66312;HTU21D;53114;51.138;6.008;2024-01-30T15:01:48;12.55;68.97
66312;HTU21D;53114;51.138;6.008;2024-01-30T15:04:14;12.59;68.16
66312;HTU21D;53114;51.138;6.008;2024-01-30T15:06:40;12.63;67.85
66312;HTU21D;53114;51.138;6.008;2024-01-30T15:09:12;12.66;67.46
66312;HTU21D;53114;51.138;6.008;2024-01-30T15:11:44;12.66;67.22
66312;HTU21D;53114;51.138;6.008;2024-01-30T15:14:11;12.66;67.23